createdAt,value
2023-02-11T00:01:40.786Z,94.50
2023-02-11T00:04:11.781Z,95.30
2023-02-11T00:06:42.414Z,95.10
2023-02-11T00:09:12.006Z,95.30
2023-02-11T00:11:41.790Z,98.00
2023-02-11T00:14:14.041Z,97.80
2023-02-11T00:16:42.946Z,97.60
2023-02-11T00:19:11.435Z,97.30
2023-02-11T00:21:39.799Z,95.70
2023-02-11T00:24:10.549Z,95.90
2023-02-11T00:26:39.338Z,96.10
2023-02-11T00:29:09.795Z,93.70
2023-02-11T00:31:41.530Z,94.00
2023-02-11T00:34:15.331Z,96.50
2023-02-11T00:36:43.610Z,99.30
2023-02-11T00:39:12.050Z,96.00
2023-02-11T00:41:40.186Z,95.70
2023-02-11T00:44:09.680Z,94.80
2023-02-11T00:46:37.791Z,96.90
2023-02-11T00:49:05.935Z,95.30
2023-02-11T00:51:34.092Z,97.00
2023-02-11T00:54:02.234Z,97.50
2023-02-11T00:56:30.408Z,97.70
2023-02-11T00:58:58.917Z,97.30
2023-02-11T01:01:28.531Z,96.90
2023-02-11T01:03:56.668Z,97.80
2023-02-11T01:06:25.056Z,97.90
2023-02-11T01:08:53.177Z,97.00
2023-02-11T01:11:23.276Z,98.60
2023-02-11T01:13:52.198Z,95.60
2023-02-11T01:16:21.201Z,98.80
2023-02-11T01:18:51.071Z,97.80
2023-02-11T01:21:19.431Z,95.20
2023-02-11T01:23:47.529Z,97.70
2023-02-11T01:26:15.667Z,92.40
2023-02-11T01:28:43.865Z,91.90
2023-02-11T01:31:12.138Z,95.00
2023-02-11T01:33:40.341Z,94.20
2023-02-11T01:36:11.834Z,95.70
2023-02-11T01:38:41.076Z,94.90
2023-02-11T01:41:12.954Z,95.70
2023-02-11T01:43:43.061Z,97.90
2023-02-11T01:46:33.287Z,95.40
2023-02-11T01:49:07.065Z,95.20
2023-02-11T01:51:40.307Z,96.90
2023-02-11T01:54:30.271Z,95.80
2023-02-11T01:57:18.271Z,96.80
2023-02-11T01:59:49.784Z,97.60
2023-02-11T02:02:21.172Z,95.20
2023-02-11T02:04:55.931Z,94.80
2023-02-11T02:07:30.326Z,97.00
2023-02-11T02:10:04.721Z,99.90
2023-02-11T02:12:32.943Z,95.30
2023-02-11T02:15:20.702Z,98.50
2023-02-11T02:17:58.280Z,99.70
2023-02-11T02:20:49.935Z,94.90
2023-02-11T02:23:36.868Z,92.30
2023-02-11T02:26:53.814Z,93.10
2023-02-11T02:29:51.641Z,95.40
2023-02-11T02:32:54.864Z,95.00
2023-02-11T02:35:32.470Z,94.70
2023-02-11T02:38:06.053Z,94.40
2023-02-11T02:40:39.448Z,95.20
2023-02-11T02:43:10.720Z,95.40
2023-02-11T02:45:38.948Z,97.40
2023-02-11T02:48:08.464Z,94.00
2023-02-11T02:50:38.438Z,95.50
2023-02-11T02:53:21.433Z,96.40
2023-02-11T02:55:58.388Z,95.20
2023-02-11T02:58:59.192Z,95.10
2023-02-11T03:01:39.018Z,95.50
2023-02-11T03:04:18.539Z,95.40
2023-02-11T03:06:54.283Z,96.70
2023-02-11T03:09:29.159Z,94.90
2023-02-11T03:11:57.584Z,97.90
2023-02-11T03:14:29.328Z,96.50
2023-02-11T03:17:00.711Z,96.50
2023-02-11T03:19:33.175Z,97.80
2023-02-11T03:22:03.444Z,96.30
2023-02-11T03:24:34.672Z,96.00
2023-02-11T03:27:07.964Z,95.60
2023-02-11T03:29:40.018Z,95.60
2023-02-11T03:32:16.167Z,95.60
2023-02-11T03:34:49.313Z,97.50
2023-02-11T03:37:22.842Z,97.30
2023-02-11T03:39:55.573Z,99.80
2023-02-11T03:42:25.675Z,99.90
2023-02-11T03:44:58.470Z,99.90
2023-02-11T03:47:29.085Z,99.90
2023-02-11T03:50:00.754Z,97.20
2023-02-11T03:52:29.562Z,99.50
2023-02-11T03:55:01.428Z,96.80
2023-02-11T03:57:29.705Z,97.30
2023-02-11T03:59:59.359Z,99.60
2023-02-11T04:02:30.539Z,98.60
2023-02-11T04:05:00.566Z,99.90
2023-02-11T04:07:29.027Z,99.90
2023-02-11T04:09:57.114Z,99.90
2023-02-11T04:12:25.349Z,99.90
2023-02-11T04:14:53.476Z,99.30
2023-02-11T04:17:21.610Z,99.60
2023-02-11T04:19:49.698Z,99.90
2023-02-11T04:22:19.226Z,99.90
2023-02-11T04:24:47.400Z,99.90
2023-02-11T04:27:15.536Z,99.90
2023-02-11T04:29:43.649Z,99.90
2023-02-11T04:32:12.647Z,99.90
2023-02-11T04:34:41.114Z,99.90
2023-02-11T04:37:09.547Z,99.90
2023-02-11T04:39:39.114Z,99.90
2023-02-11T04:42:07.388Z,99.90
2023-02-11T04:44:35.645Z,99.90
2023-02-11T04:47:03.856Z,99.90
2023-02-11T04:49:32.115Z,99.90
2023-02-11T04:52:00.233Z,99.90
2023-02-11T04:54:28.420Z,99.90
2023-02-11T04:56:57.991Z,99.90
2023-02-11T04:59:26.366Z,99.90
2023-02-11T05:01:54.549Z,99.90
2023-02-11T05:04:22.938Z,99.90
2023-02-11T05:06:51.172Z,99.90
2023-02-11T05:09:19.339Z,99.90
2023-02-11T05:11:47.490Z,99.90
2023-02-11T05:14:17.362Z,99.90
2023-02-11T05:16:45.479Z,99.90
2023-02-11T05:19:13.655Z,99.90
2023-02-11T05:21:53.047Z,99.90
2023-02-11T05:24:25.053Z,99.90
2023-02-11T05:26:53.272Z,99.90
2023-02-11T05:29:22.837Z,99.90
2023-02-11T05:31:50.986Z,99.90
2023-02-11T05:34:19.107Z,99.90
2023-02-11T05:36:47.392Z,99.90
2023-02-11T05:39:15.557Z,99.90
2023-02-11T05:41:43.732Z,98.40
2023-02-11T05:44:11.850Z,98.90
2023-02-11T05:46:41.403Z,98.60
2023-02-11T05:49:09.576Z,99.60
2023-02-11T05:51:37.714Z,99.70
2023-02-11T05:54:06.109Z,99.80
2023-02-11T05:56:34.211Z,99.90
2023-02-11T05:59:02.486Z,99.90
2023-02-11T06:01:31.489Z,99.90
2023-02-11T06:04:01.111Z,99.90
2023-02-11T06:06:29.404Z,99.90
2023-02-11T06:08:57.692Z,99.90
2023-02-11T06:11:25.844Z,99.90
2023-02-11T06:13:53.932Z,99.90
2023-02-11T06:16:22.357Z,99.90
2023-02-11T06:18:50.532Z,99.90
2023-02-11T06:21:20.103Z,99.90
2023-02-11T06:23:50.543Z,99.90
2023-02-11T06:26:22.170Z,99.90
2023-02-11T06:28:51.061Z,99.90
2023-02-11T06:31:19.681Z,99.90
2023-02-11T06:33:47.833Z,99.90
2023-02-11T06:36:18.239Z,99.90
2023-02-11T06:38:48.511Z,99.90
2023-02-11T06:41:20.347Z,99.90
2023-02-11T06:43:50.010Z,99.90
2023-02-11T06:46:18.299Z,99.90
2023-02-11T06:48:46.614Z,99.90
2023-02-11T06:51:15.758Z,99.90
2023-02-11T06:53:46.454Z,99.90
2023-02-11T06:56:18.114Z,99.90
2023-02-11T06:58:46.565Z,99.90
2023-02-11T07:01:17.087Z,99.90
2023-02-11T07:03:46.405Z,99.90
2023-02-11T07:06:16.166Z,99.90
2023-02-11T07:08:45.939Z,99.90
2023-02-11T07:11:17.391Z,99.90
2023-02-11T07:13:45.691Z,99.60
2023-02-11T07:16:16.297Z,97.60
2023-02-11T07:18:45.686Z,99.20
2023-02-11T07:21:16.000Z,99.90
2023-02-11T07:23:44.731Z,98.40
2023-02-11T07:26:16.016Z,99.90
2023-02-11T07:28:45.700Z,99.90
2023-02-11T07:31:15.964Z,98.50
2023-02-11T07:33:45.856Z,96.30
2023-02-11T07:36:16.356Z,99.90
2023-02-11T07:38:45.081Z,99.50
2023-02-11T07:41:17.868Z,99.90
2023-02-11T07:43:46.137Z,99.90
2023-02-11T07:46:16.438Z,99.90
2023-02-11T07:48:44.727Z,98.70
2023-02-11T07:51:15.364Z,99.00
2023-02-11T07:53:43.574Z,97.80
2023-02-11T07:56:13.290Z,99.90
2023-02-11T07:58:43.470Z,99.90
2023-02-11T08:01:14.180Z,99.90
2023-02-11T08:03:43.210Z,99.90
2023-02-11T08:06:15.805Z,99.90
2023-02-11T08:08:44.957Z,99.80
2023-02-11T08:11:17.515Z,99.90
2023-02-11T08:13:47.647Z,99.90
2023-02-11T08:16:20.335Z,97.20
2023-02-11T08:18:49.174Z,99.40
2023-02-11T08:21:17.356Z,99.90
2023-02-11T08:23:46.144Z,97.70
2023-02-11T08:26:16.414Z,99.10
2023-02-11T08:28:46.998Z,98.60
2023-02-11T08:31:19.476Z,99.90
2023-02-11T08:33:48.033Z,98.40
2023-02-11T08:36:18.447Z,99.90
2023-02-11T08:38:47.254Z,99.90
2023-02-11T08:41:16.304Z,98.40
2023-02-11T08:43:46.846Z,99.10
2023-02-11T08:46:17.013Z,99.90
2023-02-11T08:48:45.482Z,97.90
2023-02-11T08:51:18.134Z,99.90
2023-02-11T08:53:51.359Z,99.90
2023-02-11T08:56:33.233Z,99.90
2023-02-11T08:59:02.864Z,99.90
2023-02-11T09:01:32.899Z,97.40
2023-02-11T09:04:01.283Z,99.30
2023-02-11T09:06:29.574Z,99.90
2023-02-11T09:08:58.811Z,99.90
2023-02-11T09:11:29.736Z,98.30
2023-02-11T09:13:58.285Z,97.70
2023-02-11T09:16:29.425Z,99.90
2023-02-11T09:18:58.788Z,99.90
2023-02-11T09:21:27.456Z,99.90
2023-02-11T09:23:57.300Z,99.90
2023-02-11T09:26:27.162Z,99.90
2023-02-11T09:28:55.336Z,99.90
2023-02-11T09:31:25.084Z,99.90
2023-02-11T09:33:56.542Z,99.90
2023-02-11T09:36:27.025Z,99.90
2023-02-11T09:38:56.341Z,99.90
2023-02-11T09:41:38.734Z,99.90
2023-02-11T09:44:10.675Z,99.90
2023-02-11T09:46:43.243Z,99.90
2023-02-11T09:49:21.026Z,99.90
2023-02-11T09:51:53.509Z,99.90
2023-02-11T09:54:28.207Z,99.90
2023-02-11T09:56:56.386Z,99.90
2023-02-11T09:59:24.726Z,99.90
2023-02-11T10:01:59.952Z,99.90
2023-02-11T10:04:48.867Z,99.90
2023-02-11T10:07:26.386Z,99.90
2023-02-11T10:10:05.143Z,99.90
2023-02-11T10:12:48.450Z,99.90
2023-02-11T10:15:30.664Z,99.90
2023-02-11T10:18:17.341Z,99.90
2023-02-11T10:20:57.160Z,99.90
2023-02-11T10:23:27.743Z,99.90
2023-02-11T10:25:57.127Z,99.90
2023-02-11T10:28:31.238Z,99.90
2023-02-11T10:31:02.690Z,99.90
2023-02-11T10:33:34.307Z,99.90
2023-02-11T10:36:04.669Z,99.90
2023-02-11T10:38:33.852Z,99.50
2023-02-11T10:41:02.045Z,99.90
2023-02-11T10:43:33.008Z,99.90
2023-02-11T10:46:04.876Z,99.90
2023-02-11T10:48:44.660Z,99.90
2023-02-11T10:51:21.533Z,99.90
2023-02-11T10:53:51.147Z,99.90
2023-02-11T10:56:26.765Z,99.90
2023-02-11T10:59:01.648Z,99.90
2023-02-11T11:01:41.896Z,99.90
2023-02-11T11:04:37.771Z,99.90
2023-02-11T11:07:19.808Z,99.90
2023-02-11T11:09:54.088Z,99.90
2023-02-11T11:12:42.066Z,99.90
2023-02-11T11:15:21.621Z,99.90
2023-02-11T11:17:50.741Z,99.90
2023-02-11T11:20:28.387Z,99.90
2023-02-11T11:23:16.746Z,99.90
2023-02-11T11:25:47.096Z,99.90
2023-02-11T11:28:24.978Z,99.90
2023-02-11T11:30:55.130Z,99.90
2023-02-11T11:33:26.047Z,99.90
2023-02-11T11:36:00.758Z,99.90
2023-02-11T11:38:31.224Z,99.90
2023-02-11T11:41:16.613Z,99.90
2023-02-11T11:43:58.732Z,99.90
2023-02-11T11:46:29.900Z,99.90
2023-02-11T11:49:05.964Z,99.90
2023-02-11T11:51:34.958Z,99.90
2023-02-11T11:54:09.745Z,99.90
2023-02-11T11:56:43.116Z,99.90
2023-02-11T11:59:17.119Z,99.90
2023-02-11T12:02:00.268Z,99.90
2023-02-11T12:04:44.635Z,99.90
2023-02-11T12:07:26.666Z,99.90
2023-02-11T12:10:20.013Z,99.90
2023-02-11T12:12:57.092Z,99.90
2023-02-11T12:15:35.569Z,99.90
2023-02-11T12:18:32.946Z,99.90
2023-02-11T12:21:16.120Z,99.90
2023-02-11T12:23:59.548Z,99.90
2023-02-11T12:26:37.121Z,99.90
2023-02-11T12:29:15.083Z,99.90
2023-02-11T12:31:57.242Z,99.90
2023-02-11T12:34:43.668Z,99.90
2023-02-11T12:37:25.302Z,99.90
2023-02-11T12:39:59.154Z,99.90
2023-02-11T12:43:08.829Z,99.90
2023-02-11T12:45:49.888Z,99.90
2023-02-11T12:48:44.575Z,99.90
2023-02-11T12:51:23.927Z,99.90
2023-02-11T12:54:09.449Z,99.90
2023-02-11T12:56:42.296Z,99.90
2023-02-11T12:59:18.317Z,99.90
2023-02-11T13:01:47.763Z,99.90
2023-02-11T13:04:22.933Z,99.90
2023-02-11T13:06:57.004Z,99.90
2023-02-11T13:09:30.208Z,99.90
2023-02-11T13:12:21.820Z,99.90
2023-02-11T13:14:53.348Z,99.90
2023-02-11T13:17:31.297Z,99.90
2023-02-11T13:20:04.124Z,99.90
2023-02-11T13:22:37.487Z,99.90
2023-02-11T13:25:08.535Z,99.90
2023-02-11T13:27:45.302Z,99.90
2023-02-11T13:30:30.578Z,99.90
2023-02-11T13:33:21.594Z,99.90
2023-02-11T13:36:12.080Z,99.90
2023-02-11T13:38:40.452Z,99.90
2023-02-11T13:41:17.881Z,99.90
2023-02-11T13:43:46.391Z,99.90
2023-02-11T13:46:17.251Z,99.90
2023-02-11T13:48:49.284Z,99.90
2023-02-11T13:51:20.514Z,99.90
2023-02-11T13:53:52.709Z,99.90
2023-02-11T13:56:30.362Z,99.90
2023-02-11T13:59:01.967Z,99.90
2023-02-11T14:02:25.848Z,99.90
2023-02-11T14:05:37.800Z,99.90
2023-02-11T14:08:39.406Z,99.90
2023-02-11T14:11:36.935Z,99.90
2023-02-11T14:14:24.693Z,99.90
2023-02-11T14:17:31.627Z,99.90
2023-02-11T14:20:02.052Z,99.90
2023-02-11T14:22:41.118Z,99.90
2023-02-11T14:25:21.334Z,99.90
2023-02-11T14:27:56.773Z,99.90
2023-02-11T14:30:44.285Z,99.90
2023-02-11T14:33:38.676Z,99.90
2023-02-11T14:36:16.030Z,99.90
2023-02-11T14:38:56.806Z,99.90
2023-02-11T14:41:27.467Z,99.90
2023-02-11T14:43:59.569Z,99.90
2023-02-11T14:46:30.290Z,99.90
2023-02-11T14:49:01.651Z,99.90
2023-02-11T14:51:32.927Z,99.90
2023-02-11T14:54:08.285Z,99.90
2023-02-11T14:56:37.011Z,99.90
2023-02-11T14:59:05.131Z,99.90
2023-02-11T15:01:35.739Z,99.90
2023-02-11T15:04:06.932Z,99.90
2023-02-11T15:06:37.789Z,99.90
2023-02-11T15:09:14.730Z,99.90
2023-02-11T15:11:46.268Z,99.90
2023-02-11T15:14:22.909Z,99.90
2023-02-11T15:16:53.526Z,99.90
2023-02-11T15:19:27.316Z,99.90
2023-02-11T15:21:56.800Z,99.90
2023-02-11T15:24:27.799Z,99.90
2023-02-11T15:27:00.902Z,99.90
2023-02-11T15:29:30.750Z,99.90
2023-02-11T15:32:07.307Z,99.90
2023-02-11T15:34:37.960Z,99.90
2023-02-11T15:37:06.609Z,99.90
2023-02-11T15:39:38.004Z,99.90
2023-02-11T15:42:20.309Z,99.90
2023-02-11T15:44:56.349Z,99.90
2023-02-11T15:47:25.213Z,99.90
2023-02-11T15:49:54.914Z,99.90
2023-02-11T15:52:27.490Z,99.90
2023-02-11T15:54:57.477Z,99.90
2023-02-11T15:57:25.668Z,99.90
2023-02-11T15:59:56.312Z,99.90
2023-02-11T16:02:31.185Z,99.90
2023-02-11T16:05:02.560Z,99.90
2023-02-11T16:07:45.513Z,99.90
2023-02-11T16:10:22.609Z,99.90
2023-02-11T16:12:56.479Z,99.90
2023-02-11T16:15:47.772Z,99.90
2023-02-11T16:18:36.748Z,99.90
2023-02-11T16:21:14.775Z,99.90
2023-02-11T16:23:43.489Z,99.90
2023-02-11T16:26:22.840Z,99.90
2023-02-11T16:28:51.508Z,99.90
2023-02-11T16:31:20.094Z,99.90
2023-02-11T16:33:51.098Z,99.90
2023-02-11T16:36:20.810Z,99.90
2023-02-11T16:38:49.409Z,99.90
2023-02-11T16:41:17.918Z,99.90
2023-02-11T16:43:46.153Z,99.90
2023-02-11T16:46:16.991Z,99.90
2023-02-11T16:48:46.994Z,99.90
2023-02-11T16:51:15.394Z,99.90
2023-02-11T16:53:45.013Z,99.90
2023-02-11T16:56:17.109Z,99.90
2023-02-11T16:58:46.083Z,99.90
2023-02-11T17:01:14.545Z,99.90
2023-02-11T17:03:43.851Z,99.90
2023-02-11T17:06:13.732Z,99.90
2023-02-11T17:08:42.019Z,99.90
2023-02-11T17:11:11.719Z,99.90
2023-02-11T17:13:42.134Z,99.90
2023-02-11T17:16:18.027Z,99.90
2023-02-11T17:18:46.683Z,99.90
2023-02-11T17:21:15.014Z,99.90
2023-02-11T17:23:43.224Z,99.90
2023-02-11T17:26:12.781Z,99.90
2023-02-11T17:28:41.081Z,99.90
2023-02-11T17:31:10.728Z,99.90
2023-02-11T17:33:38.900Z,99.90
2023-02-11T17:36:08.287Z,99.90
2023-02-11T17:38:37.164Z,99.90
2023-02-11T17:41:05.978Z,99.90
2023-02-11T17:43:35.605Z,99.90
2023-02-11T17:46:08.223Z,99.90
2023-02-11T17:48:38.043Z,99.90
2023-02-11T17:51:08.726Z,99.90
2023-02-11T17:53:37.016Z,99.90
2023-02-11T17:56:07.261Z,99.90
2023-02-11T17:58:36.719Z,99.90
2023-02-11T18:01:05.161Z,99.90
2023-02-11T18:03:33.549Z,99.90
2023-02-11T18:06:02.060Z,99.90
2023-02-11T18:08:30.524Z,99.90
2023-02-11T18:10:58.832Z,99.90
2023-02-11T18:13:27.254Z,99.90
2023-02-11T18:16:02.487Z,99.90
2023-02-11T18:18:30.775Z,99.90
2023-02-11T18:20:59.514Z,99.90
2023-02-11T18:23:28.464Z,99.90
2023-02-11T18:25:56.862Z,99.90
2023-02-11T18:28:25.036Z,99.90
2023-02-11T18:31:00.018Z,99.90
2023-02-11T18:33:29.367Z,99.90
2023-02-11T18:35:58.727Z,99.90
2023-02-11T18:38:26.971Z,99.90
2023-02-11T18:40:59.150Z,99.90
2023-02-11T18:43:31.630Z,99.90
2023-02-11T18:46:02.326Z,99.90
2023-02-11T18:48:30.601Z,99.90
2023-02-11T18:50:58.846Z,99.90
2023-02-11T18:53:27.147Z,99.90
2023-02-11T18:55:55.827Z,99.90
2023-02-11T18:58:24.096Z,99.90
2023-02-11T19:00:52.254Z,99.90
2023-02-11T19:03:22.329Z,99.90
2023-02-11T19:05:51.302Z,99.90
2023-02-11T19:08:19.569Z,99.90
2023-02-11T19:10:49.564Z,99.90
2023-02-11T19:13:18.126Z,99.90
2023-02-11T19:15:47.566Z,99.90
2023-02-11T19:18:17.019Z,99.90
2023-02-11T19:20:46.704Z,99.90
2023-02-11T19:23:17.725Z,99.90
2023-02-11T19:25:49.498Z,99.90
2023-02-11T19:28:18.317Z,99.90
2023-02-11T19:30:47.004Z,99.90
2023-02-11T19:33:15.248Z,99.90
2023-02-11T19:35:43.666Z,99.90
2023-02-11T19:38:15.718Z,99.90
2023-02-11T19:40:44.583Z,99.90
2023-02-11T19:43:13.342Z,99.90
2023-02-11T19:45:41.503Z,99.90
2023-02-11T19:48:12.550Z,99.90
2023-02-11T19:50:40.688Z,99.90
2023-02-11T19:53:08.894Z,99.90
2023-02-11T19:55:38.443Z,99.90
2023-02-11T19:58:06.544Z,99.90
2023-02-11T20:00:34.932Z,99.90
2023-02-11T20:03:03.150Z,99.90
2023-02-11T20:05:31.723Z,99.90
2023-02-11T20:08:00.502Z,99.90
2023-02-11T20:10:28.701Z,99.90
2023-02-11T20:12:58.179Z,99.90
2023-02-11T20:15:26.500Z,99.90
2023-02-11T20:17:55.094Z,99.90
2023-02-11T20:20:23.331Z,99.90
2023-02-11T20:22:53.113Z,99.90
2023-02-11T20:25:21.329Z,99.90
2023-02-11T20:27:50.468Z,99.90
2023-02-11T20:30:21.724Z,99.90
2023-02-11T20:32:50.054Z,99.90
2023-02-11T20:35:18.410Z,99.90
2023-02-11T20:37:47.969Z,99.90
2023-02-11T20:40:16.148Z,99.90
2023-02-11T20:42:44.286Z,99.90
2023-02-11T20:45:12.511Z,99.90
2023-02-11T20:47:42.567Z,99.90
2023-02-11T20:50:13.935Z,99.90
2023-02-11T20:52:42.310Z,98.70
2023-02-11T20:55:13.263Z,96.20
2023-02-11T20:57:41.546Z,99.90
2023-02-11T21:00:13.305Z,99.30
2023-02-11T21:02:42.845Z,97.80
2023-02-11T21:05:12.491Z,97.00
2023-02-11T21:07:40.690Z,95.70
2023-02-11T21:10:10.106Z,97.00
2023-02-11T21:12:39.500Z,98.90
2023-02-11T21:15:10.621Z,96.10
2023-02-11T21:17:38.830Z,98.40
2023-02-11T21:20:10.183Z,99.90
2023-02-11T21:22:38.450Z,99.90
2023-02-11T21:25:09.122Z,99.90
2023-02-11T21:27:39.552Z,99.90
2023-02-11T21:30:09.084Z,99.90
2023-02-11T21:32:37.706Z,99.90
2023-02-11T21:35:06.894Z,99.90
2023-02-11T21:37:36.809Z,99.30
2023-02-11T21:40:05.758Z,98.80
2023-02-11T21:42:34.122Z,99.90
2023-02-11T21:45:02.453Z,99.90
2023-02-11T21:47:30.956Z,99.90
2023-02-11T21:49:59.207Z,99.90
2023-02-11T21:52:27.766Z,98.70
2023-02-11T21:54:57.418Z,99.90
2023-02-11T21:57:25.807Z,99.90
2023-02-11T21:59:53.940Z,99.90
2023-02-11T22:02:22.171Z,99.90
2023-02-11T22:04:50.568Z,99.90
2023-02-11T22:07:20.588Z,99.90
2023-02-11T22:09:50.348Z,99.90
2023-02-11T22:12:20.124Z,99.90
2023-02-11T22:14:48.356Z,99.90
2023-02-11T22:17:16.583Z,99.90
2023-02-11T22:19:44.793Z,99.90
2023-02-11T22:22:18.081Z,99.90
2023-02-11T22:24:46.847Z,99.90
2023-02-11T22:27:16.483Z,99.90
2023-02-11T22:29:46.937Z,99.90
2023-02-11T22:32:17.782Z,99.20
2023-02-11T22:34:46.290Z,99.90
2023-02-11T22:37:15.078Z,99.80
2023-02-11T22:39:43.762Z,99.70
2023-02-11T22:42:11.960Z,99.90
2023-02-11T22:44:40.156Z,99.90
2023-02-11T22:47:09.778Z,99.50
2023-02-11T22:49:39.556Z,99.50
2023-02-11T22:52:07.948Z,97.80
2023-02-11T22:54:36.277Z,97.40
2023-02-11T22:57:04.586Z,97.80
2023-02-11T22:59:32.714Z,96.10
2023-02-11T23:02:01.332Z,99.20
2023-02-11T23:04:31.468Z,97.60
2023-02-11T23:07:00.218Z,99.90
2023-02-11T23:09:31.190Z,99.90
2023-02-11T23:11:59.383Z,99.90
2023-02-11T23:14:27.580Z,99.50
2023-02-11T23:16:55.771Z,99.90
2023-02-11T23:19:23.946Z,99.90
2023-02-11T23:21:54.093Z,99.90
2023-02-11T23:24:22.243Z,99.90
2023-02-11T23:26:50.377Z,99.90
2023-02-11T23:29:18.578Z,99.90
2023-02-11T23:31:46.992Z,99.90
2023-02-11T23:34:17.152Z,99.80
2023-02-11T23:36:45.365Z,98.80
2023-02-11T23:39:17.136Z,99.70
2023-02-11T23:41:46.211Z,99.90
2023-02-11T23:44:14.499Z,99.90
2023-02-11T23:46:42.695Z,99.90
2023-02-11T23:49:10.989Z,99.90
2023-02-11T23:51:39.166Z,99.60
2023-02-11T23:54:07.322Z,99.90
2023-02-11T23:56:37.990Z,99.90
2023-02-11T23:59:07.135Z,99.60
